Time;durP1;ratioP1;P1;durP2;ratioP2;P2;SDS_P1;SDS_P2;PMS_P1;PMS_P2;Temp;Humidity;BMP_temperature;BMP_pressure;BME280_temperature;BME280_humidity;BME280_pressure;Samples;Min_cycle;Max_cycle;Signal;HPM_P1;HPM_P2
2022/10/25 00:01:30;;;;;;;;;;;19.60;99.90;;;;;;5043938;28;20283;-70
2022/10/25 00:03:56;;;;;;;;;;;19.70;99.90;;;;;;5045063;28;19917;-70
2022/10/25 00:06:22;;;;;;;;;;;19.60;99.90;;;;;;5045917;28;19913;-70
2022/10/25 00:08:48;;;;;;;;;;;19.70;99.90;;;;;;5044212;28;19983;-70
2022/10/25 00:11:24;;;;;;;;;;;19.70;99.90;;;;;;5043439;28;19970;-70
2022/10/25 00:13:51;;;;;;;;;;;19.70;99.90;;;;;;5043278;28;20003;-70
2022/10/25 00:16:18;;;;;;;;;;;19.70;99.90;;;;;;5045151;28;19913;-70
2022/10/25 00:18:44;;;;;;;;;;;19.70;99.90;;;;;;5045557;28;19912;-70
2022/10/25 00:21:10;;;;;;;;;;;19.70;99.90;;;;;;5040016;28;20290;-68
2022/10/25 00:23:35;;;;;;;;;;;19.70;99.90;;;;;;5046544;28;20007;-70
2022/10/25 00:26:02;;;;;;;;;;;19.70;99.90;;;;;;5051580;28;19956;-70
2022/10/25 00:28:28;;;;;;;;;;;19.70;99.90;;;;;;5043766;28;19920;-70
2022/10/25 00:31:04;;;;;;;;;;;19.70;99.90;;;;;;5042137;28;19913;-70
2022/10/25 00:33:30;;;;;;;;;;;19.80;99.90;;;;;;5043844;28;19920;-70
2022/10/25 00:36:02;;;;;;;;;;;19.80;99.90;;;;;;5043468;28;20004;-71
2022/10/25 00:38:27;;;;;;;;;;;19.80;99.90;;;;;;5045024;28;19916;-71
2022/10/25 00:40:53;;;;;;;;;;;19.80;99.90;;;;;;5044194;28;19995;-70
2022/10/25 00:43:36;;;;;;;;;;;19.70;99.90;;;;;;5043778;28;19912;-70
2022/10/25 00:46:04;;;;;;;;;;;19.80;99.90;;;;;;5039800;28;19993;-70
2022/10/25 00:48:30;;;;;;;;;;;19.80;99.90;;;;;;5042062;28;19917;-71
2022/10/25 00:50:56;;;;;;;;;;;19.90;99.90;;;;;;5044048;28;19912;-70
2022/10/25 00:53:24;;;;;;;;;;;19.90;99.90;;;;;;5044207;28;19913;-70
2022/10/25 00:55:56;;;;;;;;;;;19.90;99.90;;;;;;5045287;28;19913;-72
2022/10/25 00:58:25;;;;;;;;;;;19.90;99.90;;;;;;5042447;28;19986;-70
2022/10/25 01:00:51;;;;;;;;;;;19.90;99.90;;;;;;5043311;28;19920;-71
2022/10/25 01:03:18;;;;;;;;;;;20.00;99.90;;;;;;5042548;28;21523;-70
2022/10/25 01:05:43;;;;;;;;;;;19.90;99.90;;;;;;5045840;28;19999;-70
2022/10/25 01:08:09;;;;;;;;;;;19.90;99.90;;;;;;5053155;28;19999;-70
2022/10/25 01:10:36;;;;;;;;;;;19.90;99.90;;;;;;5045153;28;19924;-70
2022/10/25 01:13:02;;;;;;;;;;;19.90;99.90;;;;;;5044257;28;19923;-71
2022/10/25 01:15:31;;;;;;;;;;;19.90;99.90;;;;;;5041814;28;20000;-70
2022/10/25 01:18:08;;;;;;;;;;;19.90;99.90;;;;;;5043085;28;19948;-71
2022/10/25 01:20:46;;;;;;;;;;;19.90;99.90;;;;;;5047881;28;19920;-71
2022/10/25 01:23:12;;;;;;;;;;;19.90;99.90;;;;;;5053294;28;19916;-71
2022/10/25 01:25:47;;;;;;;;;;;20.00;99.90;;;;;;5050989;28;19964;-70
2022/10/25 01:28:26;;;;;;;;;;;20.00;99.90;;;;;;5034649;28;19913;-69
2022/10/25 01:31:10;;;;;;;;;;;20.00;99.90;;;;;;5033765;28;19913;-72
2022/10/25 01:33:45;;;;;;;;;;;20.00;99.90;;;;;;5047317;28;19920;-71
2022/10/25 01:36:15;;;;;;;;;;;19.90;99.90;;;;;;5047492;28;19913;-71
2022/10/25 01:38:49;;;;;;;;;;;20.00;99.90;;;;;;5048251;28;20429;-70
2022/10/25 01:41:30;;;;;;;;;;;20.10;99.90;;;;;;5048169;28;20036;-69
2022/10/25 01:44:16;;;;;;;;;;;20.20;99.90;;;;;;5046529;28;19989;-70
2022/10/25 01:46:51;;;;;;;;;;;20.20;99.90;;;;;;5023461;28;20007;-70
2022/10/25 01:49:22;;;;;;;;;;;20.20;99.90;;;;;;5047510;28;19920;-71
2022/10/25 01:51:48;;;;;;;;;;;20.20;99.90;;;;;;5055590;28;19917;-71
2022/10/25 01:54:27;;;;;;;;;;;20.20;99.90;;;;;;5055785;28;19952;-70
2022/10/25 01:57:14;;;;;;;;;;;20.30;99.90;;;;;;5056074;28;20027;-71
2022/10/25 01:59:46;;;;;;;;;;;20.40;99.90;;;;;;5055254;28;19913;-71
2022/10/25 02:02:44;;;;;;;;;;;20.30;99.90;;;;;;5057051;28;19940;-71
2022/10/25 02:05:25;;;;;;;;;;;20.30;99.90;;;;;;5027813;28;19972;-71
2022/10/25 02:07:54;;;;;;;;;;;20.30;99.90;;;;;;5046467;28;19936;-70
2022/10/25 02:10:24;;;;;;;;;;;20.20;99.90;;;;;;5045767;28;20030;-70
2022/10/25 02:13:25;;;;;;;;;;;20.20;99.90;;;;;;5045615;28;19924;-70
2022/10/25 02:15:55;;;;;;;;;;;20.30;99.90;;;;;;5006626;28;19959;-70
2022/10/25 02:18:23;;;;;;;;;;;20.20;99.90;;;;;;5041268;28;19986;-70
2022/10/25 02:20:51;;;;;;;;;;;20.10;99.90;;;;;;5044785;28;19961;-70
2022/10/25 02:23:17;;;;;;;;;;;20.10;99.90;;;;;;5045951;28;19959;-71
2022/10/25 02:25:44;;;;;;;;;;;20.10;99.90;;;;;;5046335;28;19913;-70
2022/10/25 02:28:11;;;;;;;;;;;20.30;99.90;;;;;;5046484;28;19931;-70
2022/10/25 02:30:38;;;;;;;;;;;20.30;99.90;;;;;;5044055;28;19921;-71
2022/10/25 02:33:04;;;;;;;;;;;20.40;99.90;;;;;;5047003;28;19988;-70
2022/10/25 02:35:30;;;;;;;;;;;20.30;99.90;;;;;;5045349;28;20007;-70
2022/10/25 02:37:56;;;;;;;;;;;20.30;99.90;;;;;;5046623;28;19912;-71
2022/10/25 02:40:22;;;;;;;;;;;20.20;99.90;;;;;;5045764;28;19913;-70
2022/10/25 02:42:47;;;;;;;;;;;20.20;99.90;;;;;;5046792;28;19921;-70
2022/10/25 02:45:13;;;;;;;;;;;20.20;99.90;;;;;;5053775;28;19919;-71
2022/10/25 02:47:39;;;;;;;;;;;20.20;99.90;;;;;;5043837;28;19916;-71
2022/10/25 02:50:04;;;;;;;;;;;20.20;99.90;;;;;;5046181;28;21801;-71
2022/10/25 02:52:30;;;;;;;;;;;20.20;99.90;;;;;;5044257;28;19920;-71
2022/10/25 02:54:56;;;;;;;;;;;20.20;99.90;;;;;;5043673;28;19966;-70
2022/10/25 02:57:22;;;;;;;;;;;20.20;99.90;;;;;;5046853;28;20225;-70
2022/10/25 02:59:48;;;;;;;;;;;20.30;99.90;;;;;;5046061;28;19973;-69
2022/10/25 03:02:13;;;;;;;;;;;20.40;99.90;;;;;;5046358;28;19947;-70
2022/10/25 03:04:39;;;;;;;;;;;20.30;99.90;;;;;;5049134;28;19920;-69
2022/10/25 03:07:05;;;;;;;;;;;20.30;99.90;;;;;;5052730;28;20187;-70
2022/10/25 03:09:31;;;;;;;;;;;20.20;99.90;;;;;;5053060;28;19996;-70
2022/10/25 03:11:57;;;;;;;;;;;20.30;99.90;;;;;;5052715;28;19913;-70
2022/10/25 03:14:22;;;;;;;;;;;20.30;99.90;;;;;;5050139;28;20390;-70
2022/10/25 03:16:48;;;;;;;;;;;20.30;99.90;;;;;;5053240;28;19919;-71
2022/10/25 03:19:14;;;;;;;;;;;20.30;99.90;;;;;;5051894;28;20274;-70
2022/10/25 03:21:40;;;;;;;;;;;20.20;99.90;;;;;;5052403;28;19920;-70
2022/10/25 03:24:06;;;;;;;;;;;20.30;99.90;;;;;;5052520;28;19913;-70
2022/10/25 03:26:31;;;;;;;;;;;20.30;99.90;;;;;;5053119;28;19912;-70
2022/10/25 03:28:57;;;;;;;;;;;20.20;99.90;;;;;;5052701;28;19991;-71
2022/10/25 03:31:24;;;;;;;;;;;20.20;99.90;;;;;;5052209;28;19916;-70
2022/10/25 03:33:50;;;;;;;;;;;20.20;99.90;;;;;;5050406;28;20290;-70
2022/10/25 03:36:15;;;;;;;;;;;20.30;99.90;;;;;;5044683;28;20272;-71
2022/10/25 03:38:41;;;;;;;;;;;20.20;99.90;;;;;;5050452;28;20020;-70
2022/10/25 03:41:07;;;;;;;;;;;20.20;99.90;;;;;;5052177;28;19966;-70
2022/10/25 03:43:33;;;;;;;;;;;20.20;99.90;;;;;;5053519;28;20279;-69
2022/10/25 03:45:58;;;;;;;;;;;20.20;99.90;;;;;;5051384;28;19927;-71
2022/10/25 03:48:24;;;;;;;;;;;20.20;99.90;;;;;;5044557;28;19916;-70
2022/10/25 03:50:50;;;;;;;;;;;20.10;99.90;;;;;;5051627;28;19912;-70
2022/10/25 03:53:16;;;;;;;;;;;20.10;99.90;;;;;;5052866;28;19909;-70
2022/10/25 03:55:42;;;;;;;;;;;20.00;99.90;;;;;;5052189;28;19955;-71
2022/10/25 03:58:07;;;;;;;;;;;20.00;99.90;;;;;;5054123;28;19913;-71
2022/10/25 04:00:33;;;;;;;;;;;20.00;99.90;;;;;;5053884;28;19966;-70
2022/10/25 04:03:00;;;;;;;;;;;20.00;99.90;;;;;;5053962;28;19951;-70
2022/10/25 04:05:32;;;;;;;;;;;20.00;99.90;;;;;;5050585;28;19936;-70
2022/10/25 04:08:07;;;;;;;;;;;20.00;99.90;;;;;;5053864;28;19952;-71
2022/10/25 04:10:33;;;;;;;;;;;20.00;99.90;;;;;;5051124;28;19958;-71
2022/10/25 04:12:59;;;;;;;;;;;20.00;99.90;;;;;;5050257;28;19998;-70
2022/10/25 04:15:25;;;;;;;;;;;20.00;99.90;;;;;;5051456;28;19924;-70
2022/10/25 04:17:51;;;;;;;;;;;19.90;99.90;;;;;;5046433;28;19923;-71
2022/10/25 04:20:17;;;;;;;;;;;19.90;99.90;;;;;;5047549;28;20261;-71
2022/10/25 04:22:43;;;;;;;;;;;19.90;99.90;;;;;;5044151;28;19921;-70
2022/10/25 04:25:09;;;;;;;;;;;19.80;99.90;;;;;;5049389;28;21727;-70
2022/10/25 04:27:35;;;;;;;;;;;19.50;99.90;;;;;;5050129;28;19924;-71
2022/10/25 04:30:01;;;;;;;;;;;19.40;99.90;;;;;;5049355;28;19927;-70
2022/10/25 04:32:26;;;;;;;;;;;19.30;99.90;;;;;;5047462;28;19926;-70
2022/10/25 04:34:52;;;;;;;;;;;19.20;99.90;;;;;;5043507;28;19917;-70
2022/10/25 04:37:18;;;;;;;;;;;19.10;99.90;;;;;;5048782;28;19921;-70
2022/10/25 04:39:43;;;;;;;;;;;19.10;99.90;;;;;;5048520;28;19955;-70
2022/10/25 04:42:09;;;;;;;;;;;19.00;99.90;;;;;;5047017;28;19982;-70
2022/10/25 04:44:35;;;;;;;;;;;19.10;99.90;;;;;;5048453;28;19913;-73
2022/10/25 04:47:00;;;;;;;;;;;19.20;99.90;;;;;;5047774;28;19921;-71
2022/10/25 04:49:26;;;;;;;;;;;19.30;99.90;;;;;;5047971;28;20011;-71
2022/10/25 04:51:52;;;;;;;;;;;19.40;99.90;;;;;;5054731;28;19916;-70
2022/10/25 04:54:18;;;;;;;;;;;19.50;99.90;;;;;;5055381;28;19913;-70
2022/10/25 04:56:43;;;;;;;;;;;19.50;99.90;;;;;;5054590;28;19913;-71
2022/10/25 04:59:09;;;;;;;;;;;19.50;99.90;;;;;;5052266;28;19913;-71
2022/10/25 05:01:35;;;;;;;;;;;19.60;99.90;;;;;;5033199;28;19916;-71
2022/10/25 05:04:00;;;;;;;;;;;19.60;99.90;;;;;;5036752;28;20323;-70
2022/10/25 05:06:26;;;;;;;;;;;19.40;99.90;;;;;;5044743;28;19959;-70
2022/10/25 05:08:53;;;;;;;;;;;19.10;99.90;;;;;;5048482;28;19917;-70
2022/10/25 05:11:19;;;;;;;;;;;18.40;99.90;;;;;;5050068;28;19917;-70
2022/10/25 05:13:45;;;;;;;;;;;17.60;99.90;;;;;;5049432;28;19975;-70
2022/10/25 05:16:12;;;;;;;;;;;16.90;99.90;;;;;;5049157;28;20334;-69
2022/10/25 05:18:38;;;;;;;;;;;16.40;99.90;;;;;;5040590;28;19923;-72
2022/10/25 05:21:04;;;;;;;;;;;16.10;99.90;;;;;;5049018;28;20399;-70
2022/10/25 05:23:30;;;;;;;;;;;15.90;99.90;;;;;;5060011;28;20413;-70
2022/10/25 05:26:16;;;;;;;;;;;15.80;99.90;;;;;;5051280;28;19913;-72
2022/10/25 05:28:42;;;;;;;;;;;15.70;99.90;;;;;;5049011;28;19920;-71
2022/10/25 05:31:12;;;;;;;;;;;15.60;99.90;;;;;;5049201;28;19925;-70
2022/10/25 05:33:38;;;;;;;;;;;15.60;99.90;;;;;;5048042;28;19916;-70
2022/10/25 05:36:03;;;;;;;;;;;15.60;99.90;;;;;;5048984;28;20050;-70
2022/10/25 05:38:29;;;;;;;;;;;15.60;99.90;;;;;;5047703;28;19913;-72
2022/10/25 05:40:56;;;;;;;;;;;15.70;99.90;;;;;;5048923;28;20534;-70
2022/10/25 05:43:22;;;;;;;;;;;15.70;99.90;;;;;;5052049;28;19919;-70
2022/10/25 05:45:47;;;;;;;;;;;15.80;99.90;;;;;;5055992;28;20003;-70
2022/10/25 05:48:13;;;;;;;;;;;15.70;99.90;;;;;;5057700;28;19916;-69
2022/10/25 05:50:39;;;;;;;;;;;15.70;99.90;;;;;;5056072;28;19967;-70
2022/10/25 05:53:05;;;;;;;;;;;15.70;99.90;;;;;;5054790;28;20016;-71
2022/10/25 05:55:32;;;;;;;;;;;15.70;99.90;;;;;;5054245;28;19912;-70
2022/10/25 05:57:58;;;;;;;;;;;15.80;99.90;;;;;;5056129;28;20410;-70
2022/10/25 06:00:24;;;;;;;;;;;15.80;99.90;;;;;;5054149;28;19920;-69
2022/10/25 06:02:50;;;;;;;;;;;15.90;99.90;;;;;;5055702;28;19916;-70
2022/10/25 06:05:15;;;;;;;;;;;15.90;99.90;;;;;;5052541;28;19913;-70
2022/10/25 06:07:41;;;;;;;;;;;16.00;99.90;;;;;;5049864;28;19920;-69
2022/10/25 06:10:07;;;;;;;;;;;16.10;99.90;;;;;;5037224;28;20000;-69
2022/10/25 06:12:33;;;;;;;;;;;15.90;99.90;;;;;;5053063;28;19909;-70
2022/10/25 06:14:58;;;;;;;;;;;15.90;99.90;;;;;;5056304;28;19916;-70
2022/10/25 06:17:24;;;;;;;;;;;15.80;99.90;;;;;;5056336;28;19915;-70
2022/10/25 06:19:50;;;;;;;;;;;15.80;99.90;;;;;;5055837;28;19919;-70
2022/10/25 06:22:15;;;;;;;;;;;15.80;99.90;;;;;;5055742;28;19909;-70
2022/10/25 06:24:41;;;;;;;;;;;15.80;99.90;;;;;;5046614;28;19913;-70
2022/10/25 06:27:07;;;;;;;;;;;15.90;99.90;;;;;;5052603;28;19963;-70
2022/10/25 06:29:33;;;;;;;;;;;15.90;99.90;;;;;;5036124;28;19909;-70
2022/10/25 06:31:58;;;;;;;;;;;15.80;99.90;;;;;;5036045;28;19927;-70
2022/10/25 06:34:24;;;;;;;;;;;16.00;99.90;;;;;;5036408;28;19992;-70
2022/10/25 06:36:50;;;;;;;;;;;15.80;99.90;;;;;;5036278;28;20003;-69
2022/10/25 06:39:15;;;;;;;;;;;15.90;99.90;;;;;;5036250;28;19936;-70
2022/10/25 06:41:41;;;;;;;;;;;15.90;99.90;;;;;;5036693;28;20291;-69
2022/10/25 06:44:07;;;;;;;;;;;15.90;99.90;;;;;;5035847;28;19913;-70
2022/10/25 06:46:35;;;;;;;;;;;15.90;99.90;;;;;;5052594;28;19995;-69
2022/10/25 06:49:04;;;;;;;;;;;15.90;99.90;;;;;;5053846;28;20279;-70
2022/10/25 06:51:31;;;;;;;;;;;15.90;99.90;;;;;;5055686;28;19931;-70
2022/10/25 06:53:58;;;;;;;;;;;15.90;99.90;;;;;;5055858;28;19913;-69
2022/10/25 06:56:24;;;;;;;;;;;15.80;99.90;;;;;;5055499;28;19913;-71
2022/10/25 06:58:50;;;;;;;;;;;15.90;99.90;;;;;;5055625;28;19920;-69
2022/10/25 07:01:16;;;;;;;;;;;15.90;99.90;;;;;;5052257;28;19913;-69
2022/10/25 07:03:42;;;;;;;;;;;15.90;99.90;;;;;;5055826;28;19945;-69
2022/10/25 07:06:11;;;;;;;;;;;15.90;99.90;;;;;;5054955;28;19967;-70
2022/10/25 07:08:38;;;;;;;;;;;16.00;99.90;;;;;;5055884;28;19912;-69
2022/10/25 07:11:04;;;;;;;;;;;16.00;99.90;;;;;;5047306;28;19947;-69
2022/10/25 07:13:31;;;;;;;;;;;16.00;99.90;;;;;;5055505;28;19908;-70
2022/10/25 07:16:02;;;;;;;;;;;16.10;99.90;;;;;;5053932;28;20417;-70
2022/10/25 07:18:29;;;;;;;;;;;16.10;99.90;;;;;;5053810;28;20008;-70
2022/10/25 07:20:58;;;;;;;;;;;16.20;99.90;;;;;;5053583;28;19917;-70
2022/10/25 07:23:24;;;;;;;;;;;16.20;99.90;;;;;;5054692;28;20589;-69
2022/10/25 07:25:50;;;;;;;;;;;16.30;99.90;;;;;;5052992;28;19920;-70
2022/10/25 07:28:15;;;;;;;;;;;16.30;99.90;;;;;;5055391;28;19920;-70
2022/10/25 07:30:45;;;;;;;;;;;16.40;99.90;;;;;;5045646;28;19914;-70
2022/10/25 07:33:12;;;;;;;;;;;16.40;99.90;;;;;;5054128;28;19909;-70
2022/10/25 07:35:38;;;;;;;;;;;16.40;99.90;;;;;;5052689;28;20276;-70
2022/10/25 07:38:03;;;;;;;;;;;16.50;99.90;;;;;;5051672;28;19950;-70
2022/10/25 07:40:29;;;;;;;;;;;16.50;99.90;;;;;;5052316;28;19913;-70
2022/10/25 07:42:54;;;;;;;;;;;16.60;99.90;;;;;;5053545;28;20272;-70
2022/10/25 07:45:20;;;;;;;;;;;16.60;99.90;;;;;;5053854;28;19952;-70
2022/10/25 07:47:49;;;;;;;;;;;16.70;99.90;;;;;;5054489;28;19920;-70
2022/10/25 07:50:15;;;;;;;;;;;16.70;99.90;;;;;;5050789;28;19913;-75
2022/10/25 07:52:40;;;;;;;;;;;16.70;99.90;;;;;;5051281;28;19931;-73
2022/10/25 07:55:06;;;;;;;;;;;16.60;99.90;;;;;;5045760;28;19967;-76
2022/10/25 07:57:32;;;;;;;;;;;16.60;99.90;;;;;;5046765;28;19944;-73
2022/10/25 07:59:57;;;;;;;;;;;16.70;99.90;;;;;;5051047;28;19917;-73
2022/10/25 08:02:23;;;;;;;;;;;16.70;99.90;;;;;;5050283;28;19913;-72
2022/10/25 08:04:49;;;;;;;;;;;16.70;99.90;;;;;;5051349;28;20268;-73
2022/10/25 08:07:14;;;;;;;;;;;16.70;99.90;;;;;;5044643;28;19924;-72
2022/10/25 08:09:43;;;;;;;;;;;16.70;99.90;;;;;;5049848;28;20033;-74
2022/10/25 08:12:08;;;;;;;;;;;16.70;99.90;;;;;;5049524;28;19975;-73
2022/10/25 08:14:40;;;;;;;;;;;16.70;99.90;;;;;;5052712;28;19909;-74
2022/10/25 08:17:06;;;;;;;;;;;16.80;99.90;;;;;;5051577;28;19961;-72
2022/10/25 08:19:32;;;;;;;;;;;16.80;99.90;;;;;;5052245;28;20374;-74
2022/10/25 08:21:58;;;;;;;;;;;16.90;99.90;;;;;;5051946;28;19925;-74
2022/10/25 08:24:24;;;;;;;;;;;17.00;99.90;;;;;;5047447;28;19919;-73
2022/10/25 08:26:50;;;;;;;;;;;17.10;99.90;;;;;;5051756;28;19999;-73
2022/10/25 08:29:16;;;;;;;;;;;17.10;99.90;;;;;;5049416;28;20011;-75
2022/10/25 08:31:41;;;;;;;;;;;17.10;99.90;;;;;;5053495;28;19943;-73
2022/10/25 08:34:07;;;;;;;;;;;17.10;99.90;;;;;;5047755;28;20290;-74
2022/10/25 08:36:33;;;;;;;;;;;17.10;99.90;;;;;;5044752;28;19913;-74
2022/10/25 08:38:59;;;;;;;;;;;17.10;99.90;;;;;;5051638;28;19982;-73
2022/10/25 08:41:28;;;;;;;;;;;17.20;99.90;;;;;;5049470;28;19921;-73
2022/10/25 08:43:53;;;;;;;;;;;17.20;99.90;;;;;;5050220;28;19920;-74
2022/10/25 08:46:21;;;;;;;;;;;17.20;99.90;;;;;;5048323;28;19913;-72
2022/10/25 08:48:49;;;;;;;;;;;17.20;99.90;;;;;;5052330;28;19917;-73
2022/10/25 08:51:26;;;;;;;;;;;17.30;99.90;;;;;;5047590;28;20264;-73
2022/10/25 08:53:52;;;;;;;;;;;17.40;99.90;;;;;;5052195;28;20294;-72
2022/10/25 08:56:18;;;;;;;;;;;17.50;99.90;;;;;;5052203;28;19921;-73
2022/10/25 08:58:53;;;;;;;;;;;17.70;99.90;;;;;;5052094;28;19913;-72
2022/10/25 09:01:25;;;;;;;;;;;17.70;99.90;;;;;;5048164;28;20008;-73
2022/10/25 09:03:51;;;;;;;;;;;17.80;99.90;;;;;;5052039;28;20149;-73
2022/10/25 09:06:29;;;;;;;;;;;17.90;99.90;;;;;;5048342;28;19912;-73
2022/10/25 09:09:03;;;;;;;;;;;18.00;99.90;;;;;;5051008;28;19917;-72
2022/10/25 09:11:38;;;;;;;;;;;18.00;99.90;;;;;;5052245;28;19913;-73
2022/10/25 09:14:21;;;;;;;;;;;18.00;99.90;;;;;;5052370;28;19920;-73
2022/10/25 09:17:00;;;;;;;;;;;18.00;99.90;;;;;;5052591;28;19919;-73
2022/10/25 09:19:41;;;;;;;;;;;18.10;99.90;;;;;;5046836;28;19933;-72
2022/10/25 09:22:23;;;;;;;;;;;18.20;99.90;;;;;;5053652;28;19908;-73
2022/10/25 09:25:05;;;;;;;;;;;18.40;99.90;;;;;;5052926;28;19931;-72
2022/10/25 09:27:31;;;;;;;;;;;18.40;99.90;;;;;;5048568;28;19917;-72
2022/10/25 09:30:02;;;;;;;;;;;18.40;99.90;;;;;;5047119;28;19920;-72
2022/10/25 09:32:30;;;;;;;;;;;18.40;99.90;;;;;;5052952;28;19979;-72
2022/10/25 09:34:58;;;;;;;;;;;18.40;99.90;;;;;;5051967;28;19924;-72
2022/10/25 09:37:31;;;;;;;;;;;18.50;99.90;;;;;;5051870;28;20217;-73
2022/10/25 09:40:02;;;;;;;;;;;18.60;99.90;;;;;;5051462;28;19913;-73
2022/10/25 09:42:39;;;;;;;;;;;18.60;99.90;;;;;;5050361;28;19913;-72
2022/10/25 09:45:06;;;;;;;;;;;18.60;99.90;;;;;;5050324;28;19913;-72
2022/10/25 09:47:40;;;;;;;;;;;18.60;99.90;;;;;;5051030;28;20012;-71
2022/10/25 09:50:09;;;;;;;;;;;18.60;99.90;;;;;;5050920;28;19913;-70
2022/10/25 09:52:48;;;;;;;;;;;18.60;99.90;;;;;;5046893;28;19962;-72
2022/10/25 09:55:39;;;;;;;;;;;18.60;99.90;;;;;;5055643;28;19920;-73
2022/10/25 09:58:08;;;;;;;;;;;18.70;99.90;;;;;;5051553;28;19913;-73
2022/10/25 10:00:37;;;;;;;;;;;18.70;99.90;;;;;;5055499;28;19913;-72
2022/10/25 10:03:03;;;;;;;;;;;18.70;99.90;;;;;;5054861;28;19943;-73
2022/10/25 10:05:29;;;;;;;;;;;18.70;99.90;;;;;;5055217;28;19943;-72
2022/10/25 10:07:55;;;;;;;;;;;18.80;99.90;;;;;;5055269;28;19956;-73
2022/10/25 10:10:26;;;;;;;;;;;18.80;99.90;;;;;;5054934;28;19959;-73
2022/10/25 10:12:58;;;;;;;;;;;18.80;99.90;;;;;;5055797;28;19909;-71
2022/10/25 10:15:37;;;;;;;;;;;18.80;99.90;;;;;;5050055;28;20394;-73
2022/10/25 10:18:21;;;;;;;;;;;18.80;99.90;;;;;;5052973;28;19913;-74
2022/10/25 10:20:54;;;;;;;;;;;18.90;99.90;;;;;;5054499;28;19924;-73
2022/10/25 10:23:20;;;;;;;;;;;19.00;99.90;;;;;;5048072;28;19909;-72
2022/10/25 10:25:46;;;;;;;;;;;19.00;99.90;;;;;;5056235;28;19939;-71
2022/10/25 10:28:13;;;;;;;;;;;19.10;99.90;;;;;;5051208;28;20231;-71
2022/10/25 10:30:39;;;;;;;;;;;19.30;99.90;;;;;;5054076;28;19999;-74
2022/10/25 10:33:08;;;;;;;;;;;19.50;99.90;;;;;;5055205;28;19956;-70
2022/10/25 10:35:35;;;;;;;;;;;19.60;99.90;;;;;;5052954;28;19955;-71
2022/10/25 10:38:12;;;;;;;;;;;19.70;99.90;;;;;;5052823;28;19912;-71
2022/10/25 10:40:38;;;;;;;;;;;19.80;99.90;;;;;;5053895;28;20298;-71
2022/10/25 10:43:23;;;;;;;;;;;19.90;99.90;;;;;;5059676;28;19921;-71
2022/10/25 10:45:49;;;;;;;;;;;20.00;99.90;;;;;;5073671;28;19919;-72
2022/10/25 10:48:21;;;;;;;;;;;20.10;99.90;;;;;;5075389;28;19923;-71
2022/10/25 10:50:48;;;;;;;;;;;20.30;99.90;;;;;;5071332;28;19920;-72
2022/10/25 10:53:20;;;;;;;;;;;20.40;99.90;;;;;;5067368;28;19912;-71
2022/10/25 10:55:53;;;;;;;;;;;20.40;99.90;;;;;;5065120;28;20730;-71
2022/10/25 10:58:24;;;;;;;;;;;20.30;99.90;;;;;;5065166;28;19912;-72
2022/10/25 11:00:51;;;;;;;;;;;20.20;99.90;;;;;;5065396;28;19996;-71
2022/10/25 11:03:35;;;;;;;;;;;20.20;99.90;;;;;;5067519;28;19919;-71
2022/10/25 11:06:00;;;;;;;;;;;20.20;99.90;;;;;;5066635;28;19913;-71
2022/10/25 11:08:26;;;;;;;;;;;20.30;99.90;;;;;;5081314;28;20011;-71
2022/10/25 11:10:53;;;;;;;;;;;20.30;99.90;;;;;;5067122;28;20011;-73
2022/10/25 11:13:19;;;;;;;;;;;20.50;99.90;;;;;;5068040;28;19916;-72
2022/10/25 11:15:50;;;;;;;;;;;20.60;99.90;;;;;;5074534;28;19920;-71
2022/10/25 11:18:17;;;;;;;;;;;20.60;99.90;;;;;;5077084;28;19920;-70
2022/10/25 11:20:46;;;;;;;;;;;20.70;99.90;;;;;;5078341;28;20006;-71
2022/10/25 11:23:18;;;;;;;;;;;20.70;99.90;;;;;;5072817;28;19943;-71
2022/10/25 11:26:03;;;;;;;;;;;20.80;99.90;;;;;;5085058;28;19918;-71
2022/10/25 11:28:32;;;;;;;;;;;21.00;99.90;;;;;;5078110;28;19967;-71
2022/10/25 11:30:57;;;;;;;;;;;21.10;99.90;;;;;;5072159;28;19913;-71
2022/10/25 11:33:23;;;;;;;;;;;21.20;99.90;;;;;;5066313;28;19919;-74
2022/10/25 11:35:57;;;;;;;;;;;21.20;99.90;;;;;;5074849;28;20290;-69
2022/10/25 11:38:27;;;;;;;;;;;21.10;99.90;;;;;;5069823;28;20366;-70
2022/10/25 11:40:56;;;;;;;;;;;21.10;99.90;;;;;;5074092;28;20318;-70
2022/10/25 11:43:40;;;;;;;;;;;21.00;99.90;;;;;;5070061;28;19912;-71
2022/10/25 11:46:09;;;;;;;;;;;21.00;99.90;;;;;;5080551;28;19944;-71
2022/10/25 11:48:52;;;;;;;;;;;20.90;99.90;;;;;;5074266;28;20302;-73
2022/10/25 11:51:18;;;;;;;;;;;20.80;99.90;;;;;;5083174;28;19923;-71
2022/10/25 11:54:02;;;;;;;;;;;20.80;99.90;;;;;;5063099;28;19912;-72
2022/10/25 11:56:46;;;;;;;;;;;20.70;99.90;;;;;;5083567;28;19939;-71
2022/10/25 11:59:12;;;;;;;;;;;20.70;99.90;;;;;;5080581;28;19916;-71
2022/10/25 12:01:51;;;;;;;;;;;20.70;99.90;;;;;;5077632;28;19925;-71
2022/10/25 12:04:17;;;;;;;;;;;20.80;99.90;;;;;;5068001;28;19958;-71
2022/10/25 12:06:46;;;;;;;;;;;20.70;99.90;;;;;;5072233;28;19916;-71
2022/10/25 12:09:24;;;;;;;;;;;20.60;99.90;;;;;;5070345;28;20032;-70
2022/10/25 12:11:54;;;;;;;;;;;20.60;99.90;;;;;;5082910;28;19987;-71
2022/10/25 12:14:27;;;;;;;;;;;20.50;99.90;;;;;;5068616;28;19912;-73
2022/10/25 12:16:54;;;;;;;;;;;20.60;99.90;;;;;;5073204;28;19948;-71
2022/10/25 12:19:24;;;;;;;;;;;20.60;99.90;;;;;;5074859;28;19919;-71
2022/10/25 12:22:11;;;;;;;;;;;20.60;99.90;;;;;;5065746;28;19931;-71
2022/10/25 12:24:43;;;;;;;;;;;20.70;99.90;;;;;;5073199;28;19912;-71
2022/10/25 12:27:09;;;;;;;;;;;20.90;99.90;;;;;;5072958;28;19917;-70
2022/10/25 12:29:38;;;;;;;;;;;21.10;99.90;;;;;;5073241;28;19948;-71
2022/10/25 12:32:09;;;;;;;;;;;21.30;99.90;;;;;;5073626;28;19917;-71
2022/10/25 12:34:46;;;;;;;;;;;21.40;99.90;;;;;;5073333;28;19908;-72
2022/10/25 12:37:15;;;;;;;;;;;21.60;99.90;;;;;;5073046;28;19912;-71
2022/10/25 12:39:42;;;;;;;;;;;21.80;99.90;;;;;;5081988;28;19908;-72
2022/10/25 12:42:26;;;;;;;;;;;21.90;99.90;;;;;;5090622;28;19923;-71
2022/10/25 12:45:16;;;;;;;;;;;22.00;99.90;;;;;;5072867;28;19908;-71
2022/10/25 12:47:45;;;;;;;;;;;22.10;99.90;;;;;;5073442;28;19948;-72
2022/10/25 12:50:43;;;;;;;;;;;22.10;99.90;;;;;;5074079;28;20353;-72
2022/10/25 12:53:27;;;;;;;;;;;22.10;99.90;;;;;;5039018;28;19955;-72
2022/10/25 12:55:52;;;;;;;;;;;22.20;99.90;;;;;;5071562;28;19947;-74
2022/10/25 12:58:32;;;;;;;;;;;22.10;99.90;;;;;;5094779;28;19912;-71
2022/10/25 13:00:58;;;;;;;;;;;22.10;99.90;;;;;;5093383;28;20538;-71
2022/10/25 13:03:50;;;;;;;;;;;22.10;99.90;;;;;;5093686;28;20006;-72
2022/10/25 13:06:18;;;;;;;;;;;22.10;99.90;;;;;;5092864;28;19938;-71
2022/10/25 13:08:44;;;;;;;;;;;21.90;99.90;;;;;;5075713;28;20014;-72
2022/10/25 13:11:10;;;;;;;;;;;21.80;99.90;;;;;;5092738;28;19955;-72
2022/10/25 13:13:38;;;;;;;;;;;21.70;99.90;;;;;;5077708;28;19915;-72
2022/10/25 13:16:06;;;;;;;;;;;21.70;99.90;;;;;;5077117;28;19951;-71
2022/10/25 13:18:45;;;;;;;;;;;21.50;99.90;;;;;;5058090;28;19912;-71
2022/10/25 13:21:12;;;;;;;;;;;21.50;99.90;;;;;;5070853;28;20347;-71
2022/10/25 13:23:41;;;;;;;;;;;21.50;99.90;;;;;;5080682;28;19919;-73
2022/10/25 13:26:08;;;;;;;;;;;21.60;99.90;;;;;;5074570;28;19964;-72
2022/10/25 13:28:42;;;;;;;;;;;21.70;99.90;;;;;;5085553;28;20021;-72
2022/10/25 13:31:28;;;;;;;;;;;21.70;99.90;;;;;;5079977;28;20011;-71
2022/10/25 13:34:12;;;;;;;;;;;21.70;99.90;;;;;;5079028;28;19908;-72
2022/10/25 13:36:45;;;;;;;;;;;21.50;99.90;;;;;;5072624;28;19912;-71
2022/10/25 13:39:14;;;;;;;;;;;21.50;99.90;;;;;;5086318;28;19918;-71
2022/10/25 13:41:44;;;;;;;;;;;21.30;99.90;;;;;;5087668;28;19916;-71
2022/10/25 13:44:18;;;;;;;;;;;21.30;99.90;;;;;;5085948;28;19921;-71
2022/10/25 13:46:44;;;;;;;;;;;21.30;99.90;;;;;;5087361;28;19916;-71
2022/10/25 13:49:25;;;;;;;;;;;21.20;99.90;;;;;;5083636;28;19931;-73
2022/10/25 13:51:53;;;;;;;;;;;21.20;99.90;;;;;;5085250;28;19919;-74
2022/10/25 13:54:19;;;;;;;;;;;21.30;99.90;;;;;;5091752;28;19912;-71
2022/10/25 13:56:51;;;;;;;;;;;21.30;99.90;;;;;;5088208;28;19912;-71
2022/10/25 13:59:36;;;;;;;;;;;21.20;99.90;;;;;;5086123;28;19935;-74
2022/10/25 14:02:16;;;;;;;;;;;21.10;99.90;;;;;;5082049;28;19913;-72
2022/10/25 14:04:42;;;;;;;;;;;21.20;99.90;;;;;;5084385;28;20011;-71
2022/10/25 14:07:26;;;;;;;;;;;21.20;99.90;;;;;;5076486;28;19958;-75
2022/10/25 14:09:53;;;;;;;;;;;21.10;99.90;;;;;;5073933;28;19963;-71
2022/10/25 14:12:19;;;;;;;;;;;21.00;99.90;;;;;;5082580;28;20486;-72
2022/10/25 14:14:57;;;;;;;;;;;21.00;99.90;;;;;;5074612;28;19919;-73
2022/10/25 14:17:40;;;;;;;;;;;21.00;99.90;;;;;;5075271;28;20328;-71
2022/10/25 14:20:11;;;;;;;;;;;21.10;99.90;;;;;;5074991;28;19963;-72
2022/10/25 14:22:49;;;;;;;;;;;21.10;99.90;;;;;;5073339;28;19908;-72
2022/10/25 14:25:17;;;;;;;;;;;21.20;99.90;;;;;;5064355;28;19959;-72
2022/10/25 14:27:43;;;;;;;;;;;21.20;99.90;;;;;;5058844;28;19916;-71
2022/10/25 14:30:29;;;;;;;;;;;21.30;99.90;;;;;;5080060;28;19974;-72